Time;durP1;ratioP1;P1;durP2;ratioP2;P2;SDS_P1;SDS_P2;PMS_P1;PMS_P2;Temp;Humidity;BMP_temperature;BMP_pressure;BME280_temperature;BME280_humidity;BME280_pressure;Samples;Min_cycle;Max_cycle;Signal;HPM_P1;HPM_P2
2023/09/12 00:00:52;;;;;;;;;;;26.00;71.60;;;26.15;46.03;98279.22;4937692;28;124399;-81
2023/09/12 00:03:22;;;;;;;;;;;26.00;71.70;;;26.11;46.31;98276.41;4924803;28;124421;-81
2023/09/12 00:05:56;;;;;;;;;;;25.90;71.80;;;26.09;46.49;98276.06;4926515;28;114431;-81
2023/09/12 00:08:23;;;;;;;;;;;25.90;72.00;;;26.07;46.45;98272.06;4923121;28;113567;-81
2023/09/12 00:11:04;;;;;;;;;;;25.90;72.10;;;26.05;46.83;98277.34;4914374;28;123271;-81
2023/09/12 00:13:31;;;;;;;;;;;25.90;72.40;;;26.01;46.61;98268.91;4953482;28;123993;-81
2023/09/12 00:16:00;;;;;;;;;;;25.80;72.60;;;25.97;46.51;98268.16;4951263;28;114026;-81
2023/09/12 00:18:26;;;;;;;;;;;25.80;72.70;;;25.95;46.62;98259.28;4965391;28;113464;-81
2023/09/12 00:20:56;;;;;;;;;;;25.80;72.80;;;25.94;47.18;98263.38;4961502;28;122926;-81
2023/09/12 00:23:23;;;;;;;;;;;25.70;72.90;;;25.90;46.78;98266.25;4944055;28;124584;-81
2023/09/12 00:25:51;;;;;;;;;;;25.70;73.10;;;25.88;47.23;98260.22;4967175;28;115491;-81
2023/09/12 00:28:18;;;;;;;;;;;25.70;73.30;;;25.82;47.48;98259.09;4932429;28;114767;-81
2023/09/12 00:30:45;;;;;;;;;;;25.60;73.40;;;25.79;47.24;98251.44;4923392;28;124379;-81
2023/09/12 00:33:11;;;;;;;;;;;25.60;73.70;;;25.77;47.31;98253.91;4942480;28;123832;-81
2023/09/12 00:35:37;;;;;;;;;;;25.50;74.00;;;25.72;47.57;98255.19;4949590;28;115856;-81
2023/09/12 00:38:08;;;;;;;;;;;25.50;74.60;;;25.63;48.14;98254.09;4916370;28;114036;-81
2023/09/12 00:40:40;;;;;;;;;;;25.40;74.90;;;25.55;48.29;98259.91;4952011;28;123052;-81
2023/09/12 00:43:10;;;;;;;;;;;25.40;74.90;;;25.48;48.13;98257.16;4950454;28;123891;-81
2023/09/12 00:45:37;;;;;;;;;;;25.30;75.00;;;25.46;48.29;98261.63;4954288;28;113437;-81
2023/09/12 00:48:07;;;;;;;;;;;25.30;75.10;;;25.45;48.38;98268.53;4964246;28;113785;-81
2023/09/12 00:50:36;;;;;;;;;;;25.30;75.30;;;25.45;48.22;98258.03;4933207;28;124133;-81
2023/09/12 00:53:08;;;;;;;;;;;25.30;75.60;;;25.45;48.60;98263.69;4941307;28;123690;-81
2023/09/12 00:55:38;;;;;;;;;;;25.30;75.80;;;25.45;48.11;98260.06;4951887;28;113992;-82
2023/09/12 00:58:07;;;;;;;;;;;25.20;75.80;;;25.45;48.32;98265.72;4930028;28;114870;-82
2023/09/12 01:00:36;;;;;;;;;;;25.20;75.90;;;25.45;48.16;98265.72;4920398;28;123301;-82
2023/09/12 01:03:02;;;;;;;;;;;25.20;75.90;;;25.44;48.63;98262.09;4907772;28;124823;-82
2023/09/12 01:05:34;;;;;;;;;;;25.20;76.10;;;25.43;48.23;98257.63;4908562;28;114270;-82
2023/09/12 01:08:00;;;;;;;;;;;25.20;76.20;;;25.42;48.67;98252.41;4922157;28;113567;-82
2023/09/12 01:10:27;;;;;;;;;;;25.20;76.40;;;25.37;48.67;98253.69;4912417;28;124604;-81
2023/09/12 01:12:53;;;;;;;;;;;25.10;76.50;;;25.33;48.45;98252.94;4925679;28;124066;-82
2023/09/12 01:15:22;;;;;;;;;;;25.10;76.60;;;25.30;48.42;98250.94;4919408;28;115314;-82
2023/09/12 01:17:49;;;;;;;;;;;25.10;76.70;;;25.27;48.64;98248.97;4929756;28;115403;-82
2023/09/12 01:20:29;;;;;;;;;;;25.10;76.90;;;25.21;48.65;98245.81;4911718;28;124320;-82
2023/09/12 01:23:39;;;;;;;;;;;25.10;77.10;;;25.13;49.10;98242.25;4908972;28;124342;-82
2023/09/12 01:26:39;;;;;;;;;;;25.00;77.40;;;25.04;49.65;98244.81;4892998;28;114911;-82
2023/09/12 01:29:08;;;;;;;;;;;24.90;78.00;;;24.95;49.55;98250.16;4912142;28;113530;-82
2023/09/12 01:31:36;;;;;;;;;;;24.80;77.90;;;24.90;49.83;98257.09;4912964;28;124277;-82
2023/09/12 01:34:14;;;;;;;;;;;24.80;79.00;;;24.80;50.02;98257.22;4924361;28;124461;-82
2023/09/12 01:36:41;;;;;;;;;;;24.70;79.00;;;24.74;49.93;98264.53;4900041;28;113689;-82
2023/09/12 01:39:07;;;;;;;;;;;24.60;79.00;;;24.71;50.00;98251.25;4931435;28;113831;-82
2023/09/12 01:41:35;;;;;;;;;;;24.60;79.20;;;24.71;50.35;98259.75;4920881;28;124166;-81
2023/09/12 01:44:02;;;;;;;;;;;24.50;79.30;;;24.68;50.18;98256.53;4917089;28;125785;-82
2023/09/12 01:46:29;;;;;;;;;;;24.50;79.60;;;24.65;50.32;98259.41;4915870;28;114538;-82
2023/09/12 01:48:56;;;;;;;;;;;24.50;79.80;;;24.63;50.33;98264.66;4890698;28;112045;-82
2023/09/12 01:51:24;;;;;;;;;;;24.50;80.00;;;24.61;50.34;98259.44;4912453;28;124157;-82
2023/09/12 01:53:51;;;;;;;;;;;24.40;80.10;;;24.62;50.73;98263.88;4917079;28;123921;-80
2023/09/12 01:56:17;;;;;;;;;;;24.40;80.30;;;24.64;50.29;98254.97;4912633;28;113995;-80
2023/09/12 01:58:44;;;;;;;;;;;24.40;80.60;;;24.65;50.84;98257.38;4926344;28;112851;-80
2023/09/12 02:01:11;;;;;;;;;;;24.40;80.60;;;24.65;50.68;98254.53;4927117;28;124104;-80
2023/09/12 02:03:37;;;;;;;;;;;24.40;80.80;;;24.67;50.73;98254.13;4914584;28;123955;-80
2023/09/12 02:06:04;;;;;;;;;;;24.40;80.90;;;24.65;50.61;98259.41;4926446;28;115283;-80
2023/09/12 02:08:30;;;;;;;;;;;24.40;81.20;;;24.58;50.90;98254.66;4930667;28;113250;-80
2023/09/12 02:10:59;;;;;;;;;;;24.40;81.30;;;24.55;50.85;98254.66;4927247;28;123568;-82
2023/09/12 02:13:25;;;;;;;;;;;24.40;81.40;;;24.53;50.64;98255.09;4942902;28;124815;-82
2023/09/12 02:15:58;;;;;;;;;;;24.30;81.40;;;24.52;50.66;98259.13;4948563;28;113640;-82
2023/09/12 02:18:25;;;;;;;;;;;24.30;81.60;;;24.49;50.80;98250.69;4954176;28;112718;-82
2023/09/12 02:20:54;;;;;;;;;;;24.30;81.70;;;24.45;50.73;98248.72;4942882;28;123231;-82
2023/09/12 02:23:20;;;;;;;;;;;24.30;81.80;;;24.44;50.93;98251.94;4950576;28;123849;-81
2023/09/12 02:25:49;;;;;;;;;;;24.20;81.80;;;24.42;50.85;98249.53;4942230;28;114359;-80
2023/09/12 02:28:15;;;;;;;;;;;24.20;81.90;;;24.42;50.98;98254.34;4946698;28;113229;-80
2023/09/12 02:30:41;;;;;;;;;;;24.20;82.00;;;24.40;50.89;98248.34;4928999;28;124399;-80
2023/09/12 02:33:19;;;;;;;;;;;24.20;82.00;;;24.39;50.64;98246.72;4927354;28;124322;-80
2023/09/12 02:35:45;;;;;;;;;;;24.20;82.10;;;24.37;50.61;98244.34;4932090;28;114333;-80
2023/09/12 02:38:14;;;;;;;;;;;24.10;82.00;;;24.33;51.04;98242.75;4938263;28;113682;-80
2023/09/12 02:40:43;;;;;;;;;;;24.10;82.30;;;24.29;51.32;98234.34;4930546;28;124372;-80
2023/09/12 02:43:09;;;;;;;;;;;24.10;82.50;;;24.27;51.34;98233.94;4942013;28;122574;-80
2023/09/12 02:45:35;;;;;;;;;;;24.10;82.70;;;24.24;51.55;98231.97;4946473;28;114239;-80
2023/09/12 02:48:02;;;;;;;;;;;24.00;83.20;;;24.16;51.63;98228.41;4949371;28;113563;-80
2023/09/12 02:50:28;;;;;;;;;;;24.00;83.40;;;24.10;51.71;98227.25;4934809;28;123737;-80
2023/09/12 02:52:54;;;;;;;;;;;23.90;83.60;;;24.06;52.06;98232.13;4941608;28;124019;-80
2023/09/12 02:55:21;;;;;;;;;;;23.90;83.80;;;23.99;52.09;98229.34;4952006;28;114259;-80
2023/09/12 02:57:49;;;;;;;;;;;23.80;84.40;;;23.91;52.62;98228.66;4942102;28;114468;-81
2023/09/12 03:00:16;;;;;;;;;;;23.70;85.20;;;23.81;53.03;98224.69;4938445;28;123888;-81
2023/09/12 03:02:42;;;;;;;;;;;23.70;85.40;;;23.73;52.92;98234.41;4942734;28;123481;-81
2023/09/12 03:05:08;;;;;;;;;;;23.60;85.40;;;23.73;52.94;98234.41;4923574;28;114393;-81
2023/09/12 03:07:35;;;;;;;;;;;23.60;85.50;;;23.73;53.02;98228.78;4928128;28;113033;-80
2023/09/12 03:10:01;;;;;;;;;;;23.60;85.60;;;23.75;52.82;98234.81;4934688;28;124823;-81
2023/09/12 03:12:28;;;;;;;;;;;23.60;85.70;;;23.76;52.70;98227.16;4947808;28;123878;-81
2023/09/12 03:14:54;;;;;;;;;;;23.60;85.80;;;23.77;52.82;98232.34;4948765;28;114934;-81
2023/09/12 03:17:23;;;;;;;;;;;23.60;86.00;;;23.77;53.06;98235.19;4933353;28;113517;-80
2023/09/12 03:19:52;;;;;;;;;;;23.60;86.10;;;23.80;52.98;98225.91;4913791;28;124490;-80
2023/09/12 03:22:20;;;;;;;;;;;23.60;86.20;;;23.83;52.73;98229.91;4926817;28;122932;-80
2023/09/12 03:24:46;;;;;;;;;;;23.60;86.30;;;23.85;52.69;98229.47;4931768;28;114241;-80
2023/09/12 03:27:13;;;;;;;;;;;23.60;86.30;;;23.87;52.62;98232.69;4925228;28;112644;-80
2023/09/12 03:29:39;;;;;;;;;;;23.60;86.40;;;23.87;52.53;98227.84;4943752;28;124170;-80
2023/09/12 03:32:05;;;;;;;;;;;23.60;86.40;;;23.88;52.83;98228.66;4913850;28;124209;-80
2023/09/12 03:34:34;;;;;;;;;;;23.60;86.50;;;23.88;52.49;98226.63;4951547;28;114330;-80
2023/09/12 03:37:00;;;;;;;;;;;23.60;86.60;;;23.87;52.60;98225.03;4938965;28;113534;-80
2023/09/12 03:39:29;;;;;;;;;;;23.60;86.70;;;23.88;52.53;98226.63;4932201;28;124007;-81
2023/09/12 03:41:55;;;;;;;;;;;23.60;86.70;;;23.89;52.81;98222.59;4951417;28;123600;-81
2023/09/12 03:44:21;;;;;;;;;;;23.60;86.70;;;23.88;52.71;98217.38;4932114;28;115342;-81
2023/09/12 03:46:47;;;;;;;;;;;23.60;86.80;;;23.87;52.50;98215.78;4942200;28;114838;-81
2023/09/12 03:49:14;;;;;;;;;;;23.60;86.90;;;23.87;52.34;98224.25;4933700;28;124555;-81
2023/09/12 03:51:40;;;;;;;;;;;23.60;86.90;;;23.85;52.71;98221.81;4955231;28;124225;-82
2023/09/12 03:54:06;;;;;;;;;;;23.60;87.00;;;23.79;52.68;98213.00;4935742;28;114721;-82
2023/09/12 03:56:32;;;;;;;;;;;23.50;87.20;;;23.71;53.12;98219.91;4940179;28;114028;-82
2023/09/12 03:58:59;;;;;;;;;;;23.50;87.40;;;23.65;53.29;98226.41;4912821;28;124203;-81
2023/09/12 04:01:26;;;;;;;;;;;23.40;87.30;;;23.58;53.25;98232.88;4961542;28;122368;-80
2023/09/12 04:03:53;;;;;;;;;;;23.40;87.60;;;23.48;53.79;98220.47;4947192;28;113263;-82
2023/09/12 04:06:21;;;;;;;;;;;23.30;88.00;;;23.37;53.37;98229.00;4940150;28;113984;-82
2023/09/12 04:08:48;;;;;;;;;;;23.20;88.10;;;23.31;53.98;98225.00;4923072;28;123875;-82
2023/09/12 04:11:14;;;;;;;;;;;23.20;88.20;;;23.31;53.85;98225.00;4944005;28;123792;-81
2023/09/12 04:13:43;;;;;;;;;;;23.10;88.20;;;23.34;53.89;98223.38;4933466;28;114411;-81
2023/09/12 04:16:12;;;;;;;;;;;23.10;88.40;;;23.34;53.96;98226.19;4930748;28;113969;-81
2023/09/12 04:18:38;;;;;;;;;;;23.10;88.60;;;23.32;53.91;98226.63;4921259;28;123954;-81
2023/09/12 04:21:04;;;;;;;;;;;23.10;88.60;;;23.27;53.93;98226.25;4939377;28;125452;-81
2023/09/12 04:23:31;;;;;;;;;;;23.10;89.00;;;23.22;54.20;98233.13;4925741;28;114835;-82
2023/09/12 04:26:00;;;;;;;;;;;23.00;88.80;;;23.19;54.25;98239.59;4937508;28;114029;-81
2023/09/12 04:28:26;;;;;;;;;;;23.00;89.00;;;23.17;54.34;98230.72;4945759;28;124098;-81
2023/09/12 04:31:01;;;;;;;;;;;23.00;89.60;;;23.18;54.13;98229.50;4935787;28;124034;-82
2023/09/12 04:33:27;;;;;;;;;;;23.00;89.10;;;23.18;54.21;98229.50;4962630;28;114912;-82
2023/09/12 04:35:55;;;;;;;;;;;23.00;89.10;;;23.19;53.98;98222.66;4940804;28;114457;-82
2023/09/12 04:38:24;;;;;;;;;;;23.00;89.20;;;23.21;54.21;98219.41;4926781;28;124049;-82
2023/09/12 04:40:57;;;;;;;;;;;23.00;89.60;;;23.18;54.60;98221.03;4945925;28;123532;-81
2023/09/12 04:43:23;;;;;;;;;;;23.00;89.90;;;23.09;54.76;98210.22;4914858;28;114582;-82
2023/09/12 04:45:50;;;;;;;;;;;22.90;90.00;;;23.00;54.99;98209.06;4932549;28;113659;-81
2023/09/12 04:48:16;;;;;;;;;;;22.80;90.20;;;22.90;55.27;98211.50;4956700;28;123170;-82
2023/09/12 04:50:42;;;;;;;;;;;22.70;90.30;;;22.84;55.41;98224.41;4931685;28;123088;-83
2023/09/12 04:53:12;;;;;;;;;;;22.70;90.30;;;22.81;55.55;98213.97;4951711;28;114616;-83
2023/09/12 04:55:38;;;;;;;;;;;22.60;90.50;;;22.78;55.59;98217.59;4943776;28;112853;-82
2023/09/12 04:58:05;;;;;;;;;;;22.60;90.70;;;22.79;55.73;98224.03;4943556;28;124737;-83
2023/09/12 05:00:32;;;;;;;;;;;22.60;90.70;;;22.79;55.73;98224.84;4933592;28;123954;-82
2023/09/12 05:02:58;;;;;;;;;;;22.50;90.80;;;22.80;55.48;98226.44;4940095;28;114890;-83
2023/09/12 05:05:25;;;;;;;;;;;22.80;90.90;;;22.83;55.57;98222.78;4932802;28;113440;-83
2023/09/12 05:07:51;;;;;;;;;;;22.60;90.90;;;22.85;55.74;98230.84;4931555;28;123326;-82
2023/09/12 05:10:20;;;;;;;;;;;22.60;91.00;;;22.83;55.92;98222.00;4947688;28;124297;-82
2023/09/12 05:12:49;;;;;;;;;;;22.60;91.10;;;22.79;55.86;98233.28;4945895;28;114796;-84
2023/09/12 05:15:15;;;;;;;;;;;22.50;91.10;;;22.74;55.88;98235.72;4943693;28;113731;-82
2023/09/12 05:17:47;;;;;;;;;;;22.50;91.10;;;22.74;56.02;98241.38;4917739;28;123928;-81
2023/09/12 05:20:18;;;;;;;;;;;22.50;91.30;;;22.73;56.09;98234.94;4934819;28;123610;-83
2023/09/12 05:22:49;;;;;;;;;;;22.50;91.20;;;22.73;55.95;98226.47;4931096;28;114394;-82
2023/09/12 05:25:15;;;;;;;;;;;22.50;91.20;;;22.70;55.89;98222.47;4932586;28;115574;-84
2023/09/12 05:27:42;;;;;;;;;;;22.50;91.20;;;22.72;55.98;98222.84;4936224;28;124171;-86
2023/09/12 05:30:08;;;;;;;;;;;22.50;91.30;;;22.74;56.44;98225.25;4937719;28;122321;-82
2023/09/12 05:32:36;;;;;;;;;;;22.50;91.50;;;22.69;56.43;98234.13;4956301;28;114198;-82
2023/09/12 05:35:03;;;;;;;;;;;22.40;91.70;;;22.62;56.15;98237.78;4928993;28;113185;-83
2023/09/12 05:37:29;;;;;;;;;;;22.30;91.60;;;22.63;56.14;98244.22;4932367;28;123137;-83
2023/09/12 05:39:55;;;;;;;;;;;22.30;91.60;;;22.69;56.25;98251.81;4930866;28;123744;-83
2023/09/12 05:42:22;;;;;;;;;;;22.30;91.70;;;22.74;55.93;98242.16;4939214;28;114226;-83
2023/09/12 05:44:49;;;;;;;;;;;22.40;91.70;;;22.72;56.04;98242.56;4931201;28;113858;-83
2023/09/12 05:47:16;;;;;;;;;;;22.40;91.70;;;22.72;55.94;98242.56;4923168;28;124548;-90
2023/09/12 05:49:44;;;;;;;;;;;22.40;91.70;;;22.82;56.20;98248.56;4925025;28;123815;-86
2023/09/12 05:52:13;;;;;;;;;;;22.40;91.80;;;22.93;56.11;98250.13;4940632;28;114466;-86
2023/09/12 05:54:43;;;;;;;;;;;22.50;91.80;;;23.08;56.02;98244.47;4919592;28;112051;-86
2023/09/12 05:57:09;;;;;;;;;;;22.60;91.90;;;23.19;55.57;98250.84;4932092;28;124098;-86
2023/09/12 05:59:37;;;;;;;;;;;22.60;91.80;;;23.29;55.42;98247.19;4931238;28;123836;-90
2023/09/12 06:02:05;;;;;;;;;;;22.50;91.70;;;23.38;55.19;98247.53;4943789;28;113494;-87
2023/09/12 06:04:32;;;;;;;;;;;22.80;91.70;;;23.44;55.00;98245.06;4926096;28;111546;-86
2023/09/12 06:07:02;;;;;;;;;;;22.90;91.60;;;23.48;54.61;98253.50;4946777;28;124538;-87
2023/09/12 06:09:28;;;;;;;;;;;23.00;91.50;;;23.53;54.56;98248.22;4913677;28;124032;-87
2023/09/12 06:11:55;;;;;;;;;;;23.00;91.40;;;23.63;54.25;98257.03;4958867;28;114197;-88
2023/09/12 06:14:21;;;;;;;;;;;23.10;91.40;;;23.71;54.36;98253.78;4949233;28;114960;-86
2023/09/12 06:16:49;;;;;;;;;;;23.20;91.40;;;23.81;53.99;98252.09;4933877;28;123336;-87
2023/09/12 06:19:15;;;;;;;;;;;23.20;91.30;;;23.86;53.72;98259.28;4938990;28;124177;-87
2023/09/12 06:21:44;;;;;;;;;;;23.30;91.10;;;23.86;53.73;98260.13;4948724;28;114652;-88
2023/09/12 06:24:15;;;;;;;;;;;23.30;91.00;;;23.85;53.61;98258.50;4939467;28;114293;-88
2023/09/12 06:26:42;;;;;;;;;;;23.40;91.00;;;23.85;53.81;98257.69;4932634;28;123985;-88
2023/09/12 06:29:09;;;;;;;;;;;23.40;91.00;;;23.81;53.70;98252.09;4925110;28;124009;-87
2023/09/12 06:31:35;;;;;;;;;;;23.40;91.00;;;23.80;54.05;98259.75;4927199;28;114886;-86
2023/09/12 06:34:02;;;;;;;;;;;23.40;91.10;;;23.84;53.88;98267.41;4938826;28;112832;-88
2023/09/12 06:36:31;;;;;;;;;;;23.40;91.10;;;23.84;54.35;98261.75;4948503;28;123165;-87
2023/09/12 06:38:57;;;;;;;;;;;23.40;91.00;;;23.87;53.72;98266.56;4927841;28;123644;-87
2023/09/12 06:41:24;;;;;;;;;;;23.40;91.10;;;23.92;53.77;98266.13;4926925;28;114709;-87
2023/09/12 06:43:51;;;;;;;;;;;23.50;91.10;;;23.95;53.55;98274.53;4930599;28;113019;-88
2023/09/12 06:46:17;;;;;;;;;;;23.50;91.00;;;23.97;53.78;98272.13;4965336;28;124125;-87
2023/09/12 06:48:46;;;;;;;;;;;23.50;91.00;;;24.01;53.58;98272.09;4947910;28;123411;-87
2023/09/12 06:51:13;;;;;;;;;;;23.60;90.90;;;24.08;53.10;98265.59;4960743;28;113780;-87
2023/09/12 06:53:39;;;;;;;;;;;23.60;90.70;;;24.08;52.80;98269.22;4960733;28;115600;-87
2023/09/12 06:56:06;;;;;;;;;;;23.60;90.60;;;24.15;52.91;98288.91;4938172;28;123964;-87
2023/09/12 06:58:32;;;;;;;;;;;23.70;90.60;;;24.21;52.73;98275.94;4934002;28;122797;-87
2023/09/12 07:01:03;;;;;;;;;;;23.70;90.50;;;24.23;52.72;98284.81;4924849;28;115376;-86
2023/09/12 07:03:31;;;;;;;;;;;23.70;90.40;;;24.23;52.78;98284.81;4932106;28;112843;-86
2023/09/12 07:05:57;;;;;;;;;;;23.80;90.40;;;24.27;52.79;98290.41;4930633;28;124282;-87
2023/09/12 07:08:25;;;;;;;;;;;23.80;90.40;;;24.27;52.42;98289.63;4940686;28;124113;-86
2023/09/12 07:10:54;;;;;;;;;;;23.80;90.30;;;24.33;52.62;98299.22;4949629;28;114354;-81
2023/09/12 07:13:22;;;;;;;;;;;23.80;90.30;;;24.47;52.20;98299.13;4924041;28;114065;-84
2023/09/12 07:15:50;;;;;;;;;;;23.90;90.30;;;24.57;51.91;98292.56;4930692;28;123454;-83
2023/09/12 07:18:21;;;;;;;;;;;24.00;90.20;;;24.64;51.86;98295.34;4946091;28;123249;-87
2023/09/12 07:20:57;;;;;;;;;;;24.10;90.20;;;24.64;51.94;98303.81;4957425;28;113709;-84
2023/09/12 07:23:24;;;;;;;;;;;24.10;90.10;;;24.68;52.06;98309.41;4922081;28;113841;-88
2023/09/12 07:25:50;;;;;;;;;;;24.20;90.10;;;24.71;51.74;98310.59;4948882;28;124182;-85
2023/09/12 07:28:18;;;;;;;;;;;24.20;90.10;;;24.69;51.65;98308.22;4933053;28;124561;-86
2023/09/12 07:30:47;;;;;;;;;;;24.20;90.00;;;24.66;51.82;98318.31;4937861;28;114560;-82
2023/09/12 07:33:17;;;;;;;;;;;24.20;90.00;;;24.68;51.60;98315.84;4928155;28;114095;-84
2023/09/12 07:35:43;;;;;;;;;;;24.20;89.80;;;24.73;51.58;98314.59;4961586;28;124079;-83
2023/09/12 07:38:15;;;;;;;;;;;24.30;89.80;;;24.79;51.38;98309.28;4941701;28;124393;-87
2023/09/12 07:40:44;;;;;;;;;;;24.30;89.60;;;24.87;51.58;98308.78;4948641;28;114622;-85
2023/09/12 07:43:10;;;;;;;;;;;24.40;89.60;;;24.98;51.22;98311.50;4925544;28;113323;-86
2023/09/12 07:45:38;;;;;;;;;;;24.50;89.40;;;25.11;50.97;98308.94;4943351;28;124746;-87
2023/09/12 07:48:12;;;;;;;;;;;24.50;89.20;;;25.24;50.54;98306.38;4949713;28;123877;-84
2023/09/12 07:50:38;;;;;;;;;;;24.60;88.90;;;25.33;50.36;98304.66;4968608;28;115293;-84
2023/09/12 07:53:06;;;;;;;;;;;24.70;88.80;;;25.44;49.91;98304.50;4946848;28;114664;-87
2023/09/12 07:55:37;;;;;;;;;;;24.80;88.80;;;25.54;50.06;98309.19;4954246;28;122272;-85
2023/09/12 07:58:04;;;;;;;;;;;24.90;88.40;;;25.59;49.85;98305.09;4951392;28;124688;-84
2023/09/12 08:00:30;;;;;;;;;;;25.00;88.20;;;25.65;49.81;98311.88;4966095;28;114413;-84
2023/09/12 08:03:02;;;;;;;;;;;25.10;88.00;;;25.77;49.14;98305.66;4946622;28;113809;-85
2023/09/12 08:05:28;;;;;;;;;;;25.20;87.80;;;25.88;49.58;98299.84;4950881;28;124272;-86
2023/09/12 08:07:55;;;;;;;;;;;25.20;87.50;;;25.98;48.88;98300.94;4943762;28;123904;-85
2023/09/12 08:10:21;;;;;;;;;;;25.40;87.30;;;26.04;48.63;98293.53;4932730;28;112501;-87
2023/09/12 08:12:47;;;;;;;;;;;25.50;87.10;;;26.12;48.83;98302.72;4945755;28;113047;-85
2023/09/12 08:15:13;;;;;;;;;;;25.50;86.80;;;26.20;48.68;98304.22;4940456;28;124284;-86
2023/09/12 08:17:40;;;;;;;;;;;25.60;86.70;;;26.35;48.19;98305.53;4948820;28;122885;-86
2023/09/12 08:20:11;;;;;;;;;;;25.70;86.50;;;26.48;48.19;98310.59;4924389;28;114559;-85
2023/09/12 08:22:37;;;;;;;;;;;25.80;86.10;;;26.52;47.89;98306.50;4957790;28;113849;-83
2023/09/12 08:25:04;;;;;;;;;;;25.90;85.90;;;26.57;47.66;98305.19;4914038;28;123442;-88
2023/09/12 08:27:30;;;;;;;;;;;26.00;85.80;;;26.63;47.60;98300.66;4934170;28;123831;-88
2023/09/12 08:29:57;;;;;;;;;;;26.00;85.50;;;26.69;47.67;98295.28;4944387;28;114294;-86
2023/09/12 08:32:25;;;;;;;;;;;26.10;85.30;;;26.73;47.42;98304.50;4946167;28;113656;-87
2023/09/12 08:34:54;;;;;;;;;;;26.20;85.10;;;26.78;47.66;98301.16;4954016;28;123280;-87
2023/09/12 08:37:20;;;;;;;;;;;26.20;84.90;;;26.81;47.28;98298.28;4932828;28;123386;-85
2023/09/12 08:39:46;;;;;;;;;;;26.30;84.60;;;26.80;47.24;98299.50;4948510;28;115353;-87
2023/09/12 08:42:14;;;;;;;;;;;26.30;84.40;;;26.80;47.36;98299.50;4943769;28;115129;-86
2023/09/12 08:44:42;;;;;;;;;;;26.30;84.30;;;26.82;46.98;98305.53;4948754;28;122773;-86
2023/09/12 08:47:12;;;;;;;;;;;26.30;84.20;;;26.84;47.01;98300.25;4926537;28;123867;-86
2023/09/12 08:49:42;;;;;;;;;;;26.30;84.20;;;26.91;47.09;98301.34;4935071;28;113682;-87
2023/09/12 08:52:08;;;;;;;;;;;26.30;84.60;;;26.94;46.70;98311.81;4956474;28;113658;-85
2023/09/12 08:54:37;;;;;;;;;;;26.40;83.90;;;27.00;47.04;98315.72;4931437;28;124201;-88
2023/09/12 08:57:05;;;;;;;;;;;26.40;83.70;;;26.99;46.91;98309.25;4932090;28;124029;-87
2023/09/12 08:59:36;;;;;;;;;;;26.40;83.60;;;27.02;47.04;98313.25;4932329;28;113700;-86
2023/09/12 09:02:06;;;;;;;;;;;26.40;83.50;;;27.04;47.04;98302.28;4932216;28;113762;-88
2023/09/12 09:04:33;;;;;;;;;;;26.50;83.40;;;27.08;46.84;98303.00;4947838;28;124111;-89
2023/09/12 09:06:59;;;;;;;;;;;26.50;83.30;;;27.11;46.48;98305.00;4960284;28;123912;-84
2023/09/12 09:09:27;;;;;;;;;;;26.60;83.30;;;27.18;46.39;98293.50;4928748;28;114408;-87
2023/09/12 09:11:55;;;;;;;;;;;26.60;83.30;;;27.25;46.70;98303.91;4939579;28;112162;-87
2023/09/12 09:14:24;;;;;;;;;;;26.70;83.40;;;27.31;46.59;98297.28;4970920;28;123819;-87
2023/09/12 09:16:50;;;;;;;;;;;26.80;83.40;;;27.39;46.60;98285.78;4969494;28;123457;-87
2023/09/12 09:19:18;;;;;;;;;;;26.80;83.30;;;27.45;46.57;98296.16;4949699;28;115221;-88
2023/09/12 09:21:44;;;;;;;;;;;26.90;83.00;;;27.49;46.01;98290.44;4950588;28;113937;-88
2023/09/12 09:24:15;;;;;;;;;;;27.00;82.90;;;27.52;46.01;98284.66;4943665;28;124607;-88
2023/09/12 09:26:47;;;;;;;;;;;27.00;82.60;;;27.58;45.88;98282.09;4912062;28;122734;-87
2023/09/12 09:29:18;;;;;;;;;;;27.10;82.50;;;27.65;46.02;98276.28;4961652;28;114478;-89
2023/09/12 09:31:49;;;;;;;;;;;27.10;82.40;;;27.72;45.78;98270.41;4922617;28;114632;-88
2023/09/12 09:34:17;;;;;;;;;;;27.20;82.40;;;27.80;46.11;98271.09;4947540;28;122483;-88
2023/09/12 09:36:47;;;;;;;;;;;27.30;82.30;;;27.88;45.84;98258.31;4930130;28;123889;-88
2023/09/12 09:39:13;;;;;;;;;;;27.40;82.10;;;27.96;45.49;98256.09;4941453;28;113675;-88
2023/09/12 09:41:40;;;;;;;;;;;27.50;82.00;;;28.03;45.59;98250.25;4922928;28;114067;-89
2023/09/12 09:44:10;;;;;;;;;;;27.50;81.80;;;28.09;45.62;98254.16;4931002;28;124279;-88
2023/09/12 09:46:38;;;;;;;;;;;27.50;81.90;;;28.13;45.34;98259.72;4919820;28;123850;-89
2023/09/12 09:49:07;;;;;;;;;;;27.60;81.90;;;28.18;45.82;98257.19;4947535;28;112643;-91
2023/09/12 09:51:41;;;;;;;;;;;27.60;81.90;;;28.24;45.73;98256.59;4961874;28;114020;-87
2023/09/12 09:54:08;;;;;;;;;;;27.70;82.10;;;28.29;45.67;98256.06;4953115;28;124360;-88
2023/09/12 09:56:48;;;;;;;;;;;27.80;81.90;;;28.34;45.44;98259.19;4942791;28;123579;-88
2023/09/12 09:59:21;;;;;;;;;;;27.80;81.70;;;28.41;45.36;98249.69;4930829;28;114828;-88
2023/09/12 10:01:50;;;;;;;;;;;27.90;81.50;;;28.48;45.20;98252.38;4933605;28;112559;-88
2023/09/12 10:04:17;;;;;;;;;;;28.00;81.40;;;28.55;45.07;98240.78;4931642;28;124085;-88
2023/09/12 10:06:47;;;;;;;;;;;28.00;81.20;;;28.62;45.11;98240.59;4928560;28;123482;-89
2023/09/12 10:09:14;;;;;;;;;;;28.10;81.10;;;28.69;45.01;98230.28;4947292;28;113945;-88
2023/09/12 10:11:44;;;;;;;;;;;28.10;80.90;;;28.75;44.31;98234.19;4920946;28;114390;-90
2023/09/12 10:14:15;;;;;;;;;;;28.20;80.20;;;28.78;44.18;98225.53;4918190;28;124632;-88
2023/09/12 10:16:48;;;;;;;;;;;28.30;80.40;;;28.87;44.37;98235.47;4947473;28;123089;-88
2023/09/12 10:19:28;;;;;;;;;;;28.30;80.20;;;28.92;44.61;98223.53;4926698;28;114865;-88
2023/09/12 10:21:58;;;;;;;;;;;28.40;80.20;;;28.98;44.35;98233.88;4943191;28;114148;-88
2023/09/12 10:24:25;;;;;;;;;;;28.50;80.20;;;29.06;44.26;98218.25;4937355;28;124101;-88
2023/09/12 10:26:52;;;;;;;;;;;28.50;80.00;;;29.15;44.32;98231.81;4931579;28;124278;-88
2023/09/12 10:29:18;;;;;;;;;;;28.60;79.80;;;29.22;44.05;98237.28;4953392;28;114407;-88
2023/09/12 10:31:45;;;;;;;;;;;28.70;79.60;;;29.31;43.86;98236.59;4929144;28;113517;-88
2023/09/12 10:34:13;;;;;;;;;;;28.70;79.40;;;29.40;43.39;98233.09;4945499;28;125120;-89
2023/09/12 10:36:40;;;;;;;;;;;28.80;78.90;;;29.46;43.17;98234.13;4943279;28;123106;-88
2023/09/12 10:39:08;;;;;;;;;;;28.90;78.40;;;29.55;43.13;98222.06;4932761;28;113747;-84
2023/09/12 10:41:41;;;;;;;;;;;29.00;78.10;;;29.63;43.03;98224.22;4955059;28;113682;-87
2023/09/12 10:44:10;;;;;;;;;;;29.10;77.90;;;29.72;42.37;98226.41;4932288;28;124685;-87
2023/09/12 10:46:39;;;;;;;;;;;29.20;77.20;;;29.81;41.91;98231.41;4928117;28;124184;-90
2023/09/12 10:49:10;;;;;;;;;;;29.30;76.20;;;29.90;41.35;98225.81;4930791;28;113792;-87
2023/09/12 10:51:44;;;;;;;;;;;29.30;75.60;;;30.01;41.03;98234.00;4933054;28;114123;-89
2023/09/12 10:54:23;;;;;;;;;;;29.40;75.10;;;30.09;40.39;98221.94;4921322;28;124860;-86
2023/09/12 10:57:22;;;;;;;;;;;29.50;74.10;;;30.16;40.03;98230.22;4911224;28;124726;-81
2023/09/12 11:00:04;;;;;;;;;;;29.60;73.50;;;30.29;39.61;98224.53;4914524;28;114574;-84
2023/09/12 11:02:32;;;;;;;;;;;29.70;72.50;;;30.38;38.75;98232.34;4937378;28;113696;-85
2023/09/12 11:05:12;;;;;;;;;;;29.80;71.90;;;30.48;38.21;98233.25;4923005;28;124286;-83
2023/09/12 11:11:20;;;;;;;;;;;29.90;69.00;;;30.67;36.82;98222.78;4945746;28;116517;-85
2023/09/12 11:13:47;;;;;;;;;;;30.10;68.00;;;30.80;37.07;98210.09;4882623;28;115028;-84
2023/09/12 11:16:17;;;;;;;;;;;30.20;68.00;;;30.94;36.51;98207.97;4889356;28;123939;-86
2023/09/12 11:19:19;;;;;;;;;;;30.40;67.50;;;31.07;36.56;98208.69;4889959;28;123826;-84